createdAt,value
2018-10-05T00:01:23.635Z,7.10
2018-10-05T00:03:52.119Z,7.00
2018-10-05T00:06:20.760Z,7.00
2018-10-05T00:08:49.016Z,7.00
2018-10-05T00:11:17.693Z,7.00
2018-10-05T00:13:45.949Z,6.90
2018-10-05T00:16:14.223Z,6.90
2018-10-05T00:18:42.500Z,6.90
2018-10-05T00:21:10.759Z,6.90
2018-10-05T00:23:39.319Z,6.80
2018-10-05T00:26:07.591Z,6.80
2018-10-05T00:28:35.991Z,6.70
2018-10-05T00:31:04.576Z,6.70
2018-10-05T00:33:32.844Z,6.70
2018-10-05T00:36:01.802Z,6.80
2018-10-05T00:38:30.065Z,6.80
2018-10-05T00:41:00.393Z,6.70
2018-10-05T00:43:29.698Z,6.70
2018-10-05T00:45:57.939Z,6.70
2018-10-05T00:48:26.264Z,6.70
2018-10-05T00:50:54.520Z,6.70
2018-10-05T00:53:23.033Z,6.70
2018-10-05T00:55:51.575Z,6.60
2018-10-05T00:58:19.940Z,6.70
2018-10-05T01:00:48.193Z,6.70
2018-10-05T01:03:16.655Z,6.60
2018-10-05T01:05:45.288Z,6.60
2018-10-05T01:08:13.876Z,6.60
2018-10-05T01:10:42.160Z,6.50
2018-10-05T01:13:10.424Z,6.50
2018-10-05T01:15:38.689Z,6.40
2018-10-05T01:18:07.001Z,6.40
2018-10-05T01:20:35.735Z,6.40
2018-10-05T01:23:04.007Z,6.40
2018-10-05T01:25:32.712Z,6.40
2018-10-05T01:28:00.973Z,6.40
2018-10-05T01:30:29.368Z,6.40
2018-10-05T01:32:57.651Z,6.30
2018-10-05T01:35:25.947Z,6.30
2018-10-05T01:37:54.199Z,6.30
2018-10-05T01:40:22.556Z,6.30
2018-10-05T01:42:50.815Z,6.20
2018-10-05T01:45:19.056Z,6.30
2018-10-05T01:47:47.443Z,6.20
2018-10-05T01:50:16.069Z,6.20
2018-10-05T01:52:44.455Z,6.20
2018-10-05T01:55:13.075Z,6.30
2018-10-05T01:57:41.324Z,6.40
2018-10-05T02:00:10.108Z,6.40
2018-10-05T02:02:38.578Z,6.40
2018-10-05T02:05:07.460Z,6.30
2018-10-05T02:07:36.059Z,6.30
2018-10-05T02:10:04.675Z,6.30
2018-10-05T02:12:32.965Z,6.30
2018-10-05T02:15:01.250Z,6.20
2018-10-05T02:17:29.528Z,6.20
2018-10-05T02:19:57.780Z,6.20
2018-10-05T02:22:26.033Z,6.20
2018-10-05T02:24:54.302Z,6.10
2018-10-05T02:27:22.593Z,6.10
2018-10-05T02:29:51.219Z,6.10
2018-10-05T02:32:19.488Z,6.10
2018-10-05T02:34:47.801Z,6.10
2018-10-05T02:37:16.258Z,6.10
2018-10-05T02:39:44.556Z,6.00
2018-10-05T02:42:12.808Z,6.00
2018-10-05T02:44:41.166Z,6.00
2018-10-05T02:47:09.788Z,5.90
2018-10-05T02:49:38.073Z,5.90
2018-10-05T02:52:06.731Z,5.80
2018-10-05T02:54:35.381Z,5.80
2018-10-05T02:57:04.080Z,5.70
2018-10-05T02:59:32.347Z,5.70
2018-10-05T03:02:40.948Z,5.60
2018-10-05T03:05:09.344Z,5.60
2018-10-05T03:07:37.601Z,5.60
2018-10-05T03:10:05.987Z,5.60
2018-10-05T03:12:34.243Z,5.60
2018-10-05T03:15:02.500Z,5.60
2018-10-05T03:17:30.827Z,5.50
2018-10-05T03:19:59.208Z,5.70
2018-10-05T03:22:27.740Z,5.50
2018-10-05T03:24:56.019Z,5.50
2018-10-05T03:27:24.307Z,5.50
2018-10-05T03:29:52.560Z,5.50
2018-10-05T03:32:20.836Z,5.50
2018-10-05T03:34:49.090Z,5.50
2018-10-05T03:37:17.361Z,5.50
2018-10-05T03:39:45.651Z,5.40
2018-10-05T03:42:14.028Z,5.40
2018-10-05T03:44:42.290Z,5.40
2018-10-05T03:47:10.561Z,5.40
2018-10-05T03:49:39.008Z,5.40
2018-10-05T03:52:07.931Z,5.40
2018-10-05T03:54:36.192Z,5.30
2018-10-05T03:57:05.403Z,5.30
2018-10-05T03:59:33.655Z,5.30
2018-10-05T04:02:01.984Z,5.30
2018-10-05T04:04:30.255Z,5.30
2018-10-05T04:06:58.530Z,5.20
2018-10-05T04:09:26.850Z,5.20
2018-10-05T04:11:55.116Z,5.20
2018-10-05T04:14:23.529Z,5.20
2018-10-05T04:16:51.837Z,5.20
2018-10-05T04:19:20.103Z,5.20
2018-10-05T04:21:48.391Z,5.10
2018-10-05T04:24:16.720Z,5.20
2018-10-05T04:26:44.975Z,5.10
2018-10-05T04:29:13.226Z,5.10
2018-10-05T04:31:41.504Z,5.00
2018-10-05T04:34:09.760Z,5.00
2018-10-05T04:36:38.073Z,5.00
2018-10-05T04:39:07.391Z,5.00
2018-10-05T04:41:35.640Z,5.00
2018-10-05T04:44:03.894Z,5.00
2018-10-05T04:46:32.275Z,5.10
2018-10-05T04:49:00.532Z,5.10
2018-10-05T04:51:28.796Z,5.00
2018-10-05T04:53:57.075Z,5.00
2018-10-05T04:56:25.428Z,5.00
2018-10-05T04:58:53.875Z,5.00
2018-10-05T05:01:22.163Z,4.90
2018-10-05T05:03:50.600Z,4.90
2018-10-05T05:06:18.864Z,4.80
2018-10-05T05:08:47.148Z,4.80
2018-10-05T05:11:15.412Z,4.70
2018-10-05T05:13:43.752Z,4.70
2018-10-05T05:16:12.037Z,4.70
2018-10-05T05:18:40.617Z,4.70
2018-10-05T05:21:09.230Z,4.70
2018-10-05T05:23:37.560Z,4.90
2018-10-05T05:26:06.147Z,4.90
2018-10-05T05:28:34.419Z,5.00
2018-10-05T05:31:02.731Z,5.00
2018-10-05T05:33:32.443Z,4.90
2018-10-05T05:36:00.901Z,4.90
2018-10-05T05:38:29.259Z,4.90
2018-10-05T05:40:58.138Z,4.90
2018-10-05T05:43:26.718Z,4.90
2018-10-05T05:45:55.004Z,4.90
2018-10-05T05:48:23.250Z,4.90
2018-10-05T05:50:51.636Z,5.00
2018-10-05T05:53:20.216Z,5.10
2018-10-05T05:55:48.491Z,5.10
2018-10-05T05:58:17.004Z,5.20
2018-10-05T06:00:45.617Z,5.20
2018-10-05T06:03:14.076Z,5.20
2018-10-05T06:05:42.368Z,5.20
2018-10-05T06:08:10.895Z,5.30
2018-10-05T06:10:39.245Z,5.30
2018-10-05T06:13:07.577Z,5.30
2018-10-05T06:15:35.847Z,5.40
2018-10-05T06:18:04.127Z,5.40
2018-10-05T06:20:32.740Z,5.40
2018-10-05T06:23:01.016Z,5.50
2018-10-05T06:25:29.356Z,5.50
2018-10-05T06:27:57.617Z,5.60
2018-10-05T06:30:25.932Z,5.60
2018-10-05T06:32:54.493Z,5.70
2018-10-05T06:35:22.771Z,5.80
2018-10-05T06:37:51.143Z,6.00
2018-10-05T06:40:19.400Z,6.10
2018-10-05T06:42:47.660Z,6.30
2018-10-05T06:45:16.792Z,6.40
2018-10-05T06:47:45.052Z,6.60
2018-10-05T06:50:13.303Z,7.00
2018-10-05T06:52:41.655Z,8.00
2018-10-05T06:55:09.911Z,8.80
2018-10-05T06:57:38.279Z,9.40
2018-10-05T07:00:07.040Z,9.70
2018-10-05T07:02:35.308Z,10.10
2018-10-05T07:05:03.804Z,10.40
2018-10-05T07:07:32.485Z,10.80
2018-10-05T07:10:01.129Z,11.30
2018-10-05T07:12:29.443Z,11.80
2018-10-05T07:14:57.939Z,12.20
2018-10-05T07:17:26.203Z,12.60
2018-10-05T07:19:54.448Z,13.10
2018-10-05T07:22:22.790Z,13.60
2018-10-05T07:24:52.725Z,13.90
2018-10-05T07:27:20.960Z,14.50
2018-10-05T07:29:49.547Z,14.90
2018-10-05T07:32:17.812Z,15.30
2018-10-05T07:34:46.224Z,15.70
2018-10-05T07:37:14.519Z,15.80
2018-10-05T07:39:42.955Z,16.10
2018-10-05T07:42:11.208Z,16.20
2018-10-05T07:44:39.644Z,16.10
2018-10-05T07:47:07.992Z,16.80
2018-10-05T07:49:36.440Z,17.30
2018-10-05T07:52:04.707Z,17.70
2018-10-05T07:54:33.205Z,17.80
2018-10-05T07:57:01.478Z,18.70
2018-10-05T07:59:29.875Z,18.80
2018-10-05T08:01:58.145Z,18.90
2018-10-05T08:04:26.760Z,19.20
2018-10-05T08:06:55.216Z,19.30
2018-10-05T08:09:23.526Z,19.60
2018-10-05T08:11:51.911Z,19.70
2018-10-05T08:14:20.169Z,20.00
2018-10-05T08:16:48.633Z,19.80
2018-10-05T08:19:16.931Z,20.00
2018-10-05T08:21:45.212Z,20.30
2018-10-05T08:24:13.482Z,20.30
2018-10-05T08:26:42.073Z,19.80
2018-10-05T08:29:10.352Z,19.70
2018-10-05T08:31:38.839Z,20.30
2018-10-05T08:34:07.197Z,20.50
2018-10-05T08:36:35.576Z,21.40
2018-10-05T08:39:04.995Z,21.70
2018-10-05T08:41:33.680Z,21.30
2018-10-05T08:44:01.960Z,20.80
2018-10-05T08:46:30.216Z,20.00
2018-10-05T08:48:58.613Z,19.10
2018-10-05T08:51:26.990Z,18.10
2018-10-05T08:53:55.782Z,17.80
2018-10-05T08:56:24.219Z,17.80
2018-10-05T08:58:52.506Z,17.40
2018-10-05T09:01:20.916Z,17.10
2018-10-05T09:03:49.196Z,16.90
2018-10-05T09:06:18.121Z,17.80
2018-10-05T09:08:46.367Z,19.60
2018-10-05T09:11:14.629Z,21.00
2018-10-05T09:13:43.095Z,21.80
2018-10-05T09:16:11.476Z,22.60
2018-10-05T09:18:40.081Z,23.00
2018-10-05T09:21:08.352Z,23.00
2018-10-05T09:23:36.640Z,23.60
2018-10-05T09:26:05.246Z,23.50
2018-10-05T09:28:33.526Z,23.50
2018-10-05T09:31:01.733Z,23.80
2018-10-05T09:33:30.009Z,24.10
2018-10-05T09:35:58.256Z,24.50
2018-10-05T09:38:26.468Z,24.60
2018-10-05T09:40:54.684Z,24.50
2018-10-05T09:43:22.934Z,24.80
2018-10-05T09:45:51.267Z,24.70
2018-10-05T09:48:19.479Z,25.40
2018-10-05T09:50:47.723Z,25.70
2018-10-05T09:53:15.949Z,25.40
2018-10-05T09:55:44.168Z,25.50
2018-10-05T09:58:12.400Z,25.90
2018-10-05T10:00:46.009Z,26.20
2018-10-05T10:03:19.579Z,26.50
2018-10-05T10:05:47.880Z,26.40
2018-10-05T10:08:16.109Z,26.50
2018-10-05T10:10:44.745Z,25.80
2018-10-05T10:13:12.933Z,25.90
2018-10-05T10:15:41.331Z,25.20
2018-10-05T10:18:09.593Z,24.80
2018-10-05T10:20:38.050Z,24.50
2018-10-05T10:23:06.600Z,24.00
2018-10-05T10:25:34.987Z,23.50
2018-10-05T10:28:03.426Z,23.20
2018-10-05T10:30:31.841Z,23.20
2018-10-05T10:33:00.073Z,23.20
2018-10-05T10:35:28.703Z,23.30
2018-10-05T10:37:56.936Z,22.90
2018-10-05T10:40:25.381Z,23.20
2018-10-05T10:42:53.669Z,23.40
2018-10-05T10:45:22.037Z,23.20
2018-10-05T10:47:50.574Z,23.30
2018-10-05T10:50:18.884Z,23.40
2018-10-05T10:52:47.096Z,23.50
2018-10-05T10:55:15.377Z,23.40
2018-10-05T10:57:43.604Z,23.60
2018-10-05T11:00:12.449Z,23.80
2018-10-05T11:02:40.677Z,23.40
2018-10-05T11:05:09.340Z,23.50
2018-10-05T11:07:38.560Z,24.00
2018-10-05T11:10:06.897Z,24.80
2018-10-05T11:12:35.180Z,25.10
2018-10-05T11:15:03.727Z,26.00
2018-10-05T11:17:31.969Z,26.80
2018-10-05T11:20:00.280Z,27.10
2018-10-05T11:22:28.775Z,27.60
2018-10-05T11:24:57.179Z,27.90
2018-10-05T11:27:25.410Z,28.40
2018-10-05T11:29:53.620Z,28.50
2018-10-05T11:32:21.860Z,28.90
2018-10-05T11:34:50.309Z,29.50
2018-10-05T11:37:18.528Z,29.60
2018-10-05T11:39:46.953Z,29.50
2018-10-05T11:42:15.194Z,29.60
2018-10-05T11:44:43.405Z,29.80
2018-10-05T11:47:11.765Z,30.10
2018-10-05T11:49:40.274Z,30.20
2018-10-05T11:52:08.837Z,30.10
2018-10-05T11:54:37.376Z,30.20
2018-10-05T11:57:06.418Z,29.60
2018-10-05T11:59:34.655Z,29.70
2018-10-05T12:02:03.185Z,29.90
2018-10-05T12:04:31.546Z,29.60
2018-10-05T12:06:59.882Z,29.50
2018-10-05T12:09:28.132Z,29.60
2018-10-05T12:11:56.360Z,29.70
2018-10-05T12:14:24.837Z,29.80
2018-10-05T12:17:01.450Z,29.40
2018-10-05T12:19:29.752Z,29.50
2018-10-05T12:21:57.979Z,29.40
2018-10-05T12:24:26.225Z,29.50
2018-10-05T12:26:54.769Z,29.80
2018-10-05T12:29:23.229Z,29.40
2018-10-05T12:31:51.789Z,29.80
2018-10-05T12:34:20.032Z,29.10
2018-10-05T12:36:48.272Z,29.00
2018-10-05T12:39:18.282Z,28.20
2018-10-05T12:41:46.505Z,27.70
2018-10-05T12:44:14.996Z,27.40
2018-10-05T12:46:43.585Z,26.00
2018-10-05T12:49:11.844Z,25.10
2018-10-05T12:51:40.157Z,24.00
2018-10-05T12:54:08.407Z,23.20
2018-10-05T12:56:36.824Z,22.20
2018-10-05T12:59:05.192Z,21.90
2018-10-05T13:01:33.438Z,22.00
2018-10-05T13:04:01.690Z,21.70
2018-10-05T13:06:30.472Z,21.40
2018-10-05T13:08:58.713Z,21.00
2018-10-05T13:11:27.168Z,21.00
2018-10-05T13:13:55.388Z,20.90
2018-10-05T13:16:23.626Z,21.00
2018-10-05T13:18:52.052Z,20.80
2018-10-05T13:21:20.294Z,20.80
2018-10-05T13:23:48.542Z,20.60
2018-10-05T13:26:16.765Z,20.40
2018-10-05T13:28:45.594Z,20.30
2018-10-05T13:31:13.972Z,20.20
2018-10-05T13:33:42.234Z,20.10
2018-10-05T13:36:10.655Z,20.20
2018-10-05T13:38:38.934Z,20.10
2018-10-05T13:41:07.397Z,20.00
2018-10-05T13:43:35.663Z,20.20
2018-10-05T13:46:04.304Z,20.20
2018-10-05T13:48:32.583Z,20.20
2018-10-05T13:51:00.977Z,20.20
2018-10-05T13:53:29.261Z,20.30
2018-10-05T13:55:57.654Z,20.40
2018-10-05T13:58:25.899Z,20.50
2018-10-05T14:00:54.168Z,20.50
2018-10-05T14:03:22.451Z,20.70
2018-10-05T14:05:50.720Z,20.60
2018-10-05T14:08:19.000Z,20.40
2018-10-05T14:10:47.256Z,20.70
2018-10-05T14:13:15.609Z,20.60
2018-10-05T14:15:44.357Z,20.40
2018-10-05T14:18:12.765Z,20.50
2018-10-05T14:20:41.087Z,20.20
2018-10-05T14:23:09.497Z,20.10
2018-10-05T14:25:37.833Z,20.20
2018-10-05T14:28:06.396Z,20.00
2018-10-05T14:30:34.776Z,19.80
2018-10-05T14:33:03.376Z,19.70
2018-10-05T14:35:31.794Z,19.70
2018-10-05T14:38:00.080Z,19.70
2018-10-05T14:40:28.693Z,19.70
2018-10-05T14:42:56.959Z,19.60
2018-10-05T14:45:25.310Z,19.50
2018-10-05T14:47:54.072Z,19.60
2018-10-05T14:50:22.559Z,19.50
2018-10-05T14:52:50.991Z,19.60
2018-10-05T14:55:19.257Z,19.40
2018-10-05T14:57:47.619Z,19.30
2018-10-05T15:00:15.911Z,19.30
2018-10-05T15:02:44.351Z,19.40
2018-10-05T15:05:12.620Z,19.50
2018-10-05T15:07:40.918Z,19.30
2018-10-05T15:10:09.604Z,19.20
2018-10-05T15:12:38.138Z,19.10
2018-10-05T15:15:06.713Z,19.00
2018-10-05T15:17:35.230Z,18.90
2018-10-05T15:20:03.516Z,18.80
2018-10-05T15:22:31.928Z,18.60
2018-10-05T15:25:00.190Z,18.60
2018-10-05T15:27:28.448Z,18.50
2018-10-05T15:29:56.746Z,18.50
2018-10-05T15:32:25.145Z,18.40
2018-10-05T15:34:53.414Z,18.40
2018-10-05T15:37:21.688Z,18.20
2018-10-05T15:39:49.992Z,18.10
2018-10-05T15:42:18.468Z,18.20
2018-10-05T15:44:47.023Z,18.10
2018-10-05T15:47:17.056Z,18.20
2018-10-05T15:49:45.760Z,18.10
2018-10-05T15:52:14.281Z,18.10
2018-10-05T15:54:42.917Z,17.80
2018-10-05T15:57:12.097Z,17.80
2018-10-05T15:59:40.371Z,17.70
2018-10-05T16:02:09.450Z,17.70
2018-10-05T16:04:37.724Z,17.70
2018-10-05T16:07:06.036Z,17.70
2018-10-05T16:09:34.312Z,17.60
2018-10-05T16:12:02.800Z,17.50
2018-10-05T16:14:31.303Z,17.50
2018-10-05T16:16:59.842Z,17.40
2018-10-05T16:19:28.156Z,17.30
2018-10-05T16:21:56.776Z,17.30
2018-10-05T16:24:28.115Z,17.20
2018-10-05T16:26:56.915Z,17.10
2018-10-05T16:29:25.197Z,17.00
2018-10-05T16:31:53.457Z,17.00
2018-10-05T16:34:21.731Z,16.90
2018-10-05T16:36:49.999Z,16.90
2018-10-05T16:39:18.280Z,16.70
2018-10-05T16:41:46.553Z,16.60
2018-10-05T16:44:14.812Z,16.50
2018-10-05T16:46:43.088Z,16.40
2018-10-05T16:49:12.071Z,16.40
2018-10-05T16:51:40.705Z,16.30
2018-10-05T16:54:09.648Z,16.10
2018-10-05T16:56:38.748Z,16.10
2018-10-05T16:59:07.371Z,16.00
2018-10-05T17:01:36.230Z,15.90
2018-10-05T17:04:04.518Z,15.80
2018-10-05T17:06:33.259Z,15.70
2018-10-05T17:09:08.967Z,15.70
2018-10-05T17:11:38.585Z,15.60
2018-10-05T17:14:07.219Z,15.60
2018-10-05T17:16:35.884Z,15.70
2018-10-05T17:19:05.308Z,15.70
2018-10-05T17:21:33.941Z,15.70
2018-10-05T17:24:02.270Z,15.60
2018-10-05T17:26:30.545Z,15.40
2018-10-05T17:28:58.835Z,15.20
2018-10-05T17:31:27.104Z,15.10
2018-10-05T17:33:55.371Z,14.90
2018-10-05T17:36:23.696Z,14.70
2018-10-05T17:38:52.373Z,14.60
2018-10-05T17:41:20.867Z,14.50
2018-10-05T17:43:49.219Z,14.40
2018-10-05T17:46:17.577Z,14.40
2018-10-05T17:48:46.001Z,14.30
2018-10-05T17:51:14.469Z,14.20
2018-10-05T17:53:42.922Z,14.10
2018-10-05T17:56:11.415Z,14.10
2018-10-05T17:58:39.914Z,13.90
2018-10-05T18:01:08.428Z,13.80
2018-10-05T18:03:36.763Z,13.70
2018-10-05T18:06:05.111Z,13.70
2018-10-05T18:08:33.399Z,13.60
2018-10-05T18:11:01.792Z,13.50
2018-10-05T18:13:30.112Z,13.50
2018-10-05T18:15:58.492Z,13.50
2018-10-05T18:18:26.813Z,13.50
2018-10-05T18:20:55.301Z,13.40
2018-10-05T18:23:23.947Z,13.40
2018-10-05T18:25:52.369Z,13.20
2018-10-05T18:28:20.904Z,13.20
2018-10-05T18:30:49.396Z,13.20
2018-10-05T18:33:18.052Z,13.10
2018-10-05T18:35:46.724Z,13.10
2018-10-05T18:38:15.354Z,13.00
2018-10-05T18:40:43.899Z,13.00
2018-10-05T18:43:12.175Z,12.90
2018-10-05T18:45:40.472Z,12.80
2018-10-05T18:48:08.736Z,12.80
2018-10-05T18:50:37.132Z,12.80
2018-10-05T18:53:05.752Z,12.70
2018-10-05T18:55:34.356Z,12.70
2018-10-05T18:58:02.990Z,12.70
2018-10-05T19:00:31.797Z,12.60
2018-10-05T19:03:00.756Z,12.50
2018-10-05T19:05:29.060Z,12.50
2018-10-05T19:07:58.274Z,12.50
2018-10-05T19:10:26.872Z,12.40
2018-10-05T19:12:55.140Z,12.30
2018-10-05T19:15:23.420Z,12.30
2018-10-05T19:17:51.697Z,12.30
2018-10-05T19:20:19.980Z,12.30
2018-10-05T19:22:49.664Z,12.30
2018-10-05T19:25:17.935Z,12.30
2018-10-05T19:27:46.244Z,12.30
2018-10-05T19:30:14.552Z,12.20
2018-10-05T19:32:42.833Z,12.20
2018-10-05T19:35:11.134Z,12.10
2018-10-05T19:37:39.903Z,12.10
2018-10-05T19:40:08.407Z,12.00
2018-10-05T19:42:37.000Z,12.10
2018-10-05T19:45:06.496Z,12.00
2018-10-05T19:47:34.837Z,12.00
2018-10-05T19:50:03.457Z,11.90
2018-10-05T19:52:31.869Z,11.90
2018-10-05T19:55:00.167Z,11.80
2018-10-05T19:57:28.453Z,11.70
2018-10-05T19:59:57.900Z,11.70
2018-10-05T20:02:26.209Z,11.60
2018-10-05T20:04:54.909Z,11.50
2018-10-05T20:07:23.208Z,11.60
2018-10-05T20:09:51.757Z,11.50
2018-10-05T20:12:20.399Z,11.60
2018-10-05T20:14:48.927Z,11.60
2018-10-05T20:17:17.780Z,11.60
2018-10-05T20:19:46.077Z,11.60
2018-10-05T20:22:14.724Z,11.60
2018-10-05T20:24:42.990Z,11.60
2018-10-05T20:27:12.375Z,11.50
2018-10-05T20:29:41.404Z,11.40
2018-10-05T20:32:10.410Z,11.40
2018-10-05T20:34:38.936Z,11.30
2018-10-05T20:37:07.674Z,11.30
2018-10-05T20:39:36.049Z,11.30
2018-10-05T20:42:04.707Z,11.20
2018-10-05T20:44:33.215Z,11.10
2018-10-05T20:47:01.973Z,11.10
2018-10-05T20:49:30.455Z,11.10
2018-10-05T20:51:58.809Z,11.00
2018-10-05T20:54:27.284Z,11.00
2018-10-05T20:56:55.556Z,11.00
2018-10-05T20:59:23.876Z,11.00
2018-10-05T21:01:52.423Z,11.00
2018-10-05T21:04:20.724Z,10.90
2018-10-05T21:06:49.210Z,10.80
2018-10-05T21:09:17.671Z,10.80
2018-10-05T21:11:45.977Z,10.80
2018-10-05T21:14:14.284Z,10.80
2018-10-05T21:16:42.617Z,10.70
2018-10-05T21:19:10.872Z,10.60
2018-10-05T21:21:39.167Z,10.60
2018-10-05T21:24:07.833Z,10.50
2018-10-05T21:26:36.103Z,10.50
2018-10-05T21:29:04.708Z,10.40
2018-10-05T21:31:32.984Z,10.40
2018-10-05T21:34:01.385Z,10.40
2018-10-05T21:36:29.807Z,10.40
2018-10-05T21:38:58.067Z,10.30
2018-10-05T21:41:26.333Z,10.30
2018-10-05T21:43:54.739Z,10.30
2018-10-05T21:46:23.396Z,10.20
2018-10-05T21:48:51.684Z,10.20
2018-10-05T21:51:20.393Z,10.20
2018-10-05T21:53:48.969Z,10.30
2018-10-05T21:56:17.231Z,10.20
2018-10-05T21:58:45.738Z,10.10
2018-10-05T22:01:14.032Z,10.20
2018-10-05T22:03:47.733Z,10.20
2018-10-05T22:06:17.324Z,10.10
2018-10-05T22:08:45.589Z,10.10
2018-10-05T22:11:14.645Z,10.10
2018-10-05T22:13:43.186Z,10.00
2018-10-05T22:16:11.842Z,10.00
2018-10-05T22:18:40.536Z,10.10
2018-10-05T22:21:09.440Z,10.10
2018-10-05T22:23:37.873Z,10.10
2018-10-05T22:26:06.505Z,10.00
2018-10-05T22:28:34.827Z,10.00
2018-10-05T22:31:03.083Z,10.00
2018-10-05T22:33:31.696Z,10.00
2018-10-05T22:36:00.088Z,9.90
2018-10-05T22:38:28.364Z,9.90
2018-10-05T22:40:56.704Z,9.90
2018-10-05T22:43:25.294Z,9.90
2018-10-05T22:45:53.884Z,9.90
2018-10-05T22:48:22.669Z,9.80
2018-10-05T22:50:50.935Z,9.80
2018-10-05T22:53:19.283Z,9.80
2018-10-05T22:55:47.575Z,9.80
2018-10-05T22:58:15.840Z,9.70
2018-10-05T23:00:44.085Z,9.70
2018-10-05T23:03:12.412Z,9.70
2018-10-05T23:05:40.681Z,9.60
2018-10-05T23:08:08.941Z,9.60
2018-10-05T23:10:37.229Z,9.50
2018-10-05T23:13:05.509Z,9.50
2018-10-05T23:15:33.756Z,9.40
2018-10-05T23:18:02.036Z,9.50
2018-10-05T23:20:30.292Z,9.50
2018-10-05T23:22:58.574Z,9.50
2018-10-05T23:25:27.068Z,9.70
2018-10-05T23:27:55.331Z,9.70
2018-10-05T23:30:23.697Z,9.70
2018-10-05T23:32:51.974Z,9.70
2018-10-05T23:35:20.244Z,9.60
2018-10-05T23:37:48.531Z,9.50
2018-10-05T23:40:16.832Z,9.50
2018-10-05T23:42:45.099Z,9.40
2018-10-05T23:45:13.348Z,9.30
2018-10-05T23:47:41.784Z,9.30
2018-10-05T23:50:10.049Z,9.30
2018-10-05T23:52:41.471Z,9.30
2018-10-05T23:55:09.744Z,9.20
2018-10-05T23:57:38.787Z,9.20
